Time;durP1;ratioP1;P1;durP2;ratioP2;P2;SDS_P1;SDS_P2;PMS_P1;PMS_P2;Temp;Humidity;BMP_temperature;BMP_pressure;BME280_temperature;BME280_humidity;BME280_pressure;Samples;Min_cycle;Max_cycle;Signal;HPM_P1;HPM_P2
2022/03/17 00:00:47;;;;;;;0.20;0.20;;;;;;;10.19;73.56;100904.44;5095942;28;20031;-71
2022/03/17 00:03:16;;;;;;;0.20;0.20;;;;;;;10.18;74.14;100903.63;5095970;28;20389;-71
2022/03/17 00:05:47;;;;;;;0.20;0.20;;;;;;;10.16;73.40;100896.75;5096556;28;20365;-71
2022/03/17 00:08:14;;;;;;;0.20;0.20;;;;;;;10.10;73.05;100901.72;5097252;28;20485;-72
2022/03/17 00:10:39;;;;;;;0.20;0.20;;;;;;;10.14;73.09;100901.88;5095983;28;20056;-72
2022/03/17 00:13:08;;;;;;;0.20;0.20;;;;;;;10.23;72.54;100909.00;5095453;28;20509;-72
2022/03/17 00:15:34;;;;;;;0.20;0.20;;;;;;;10.28;72.55;100905.19;5096418;28;20056;-72
2022/03/17 00:17:59;;;;;;;0.20;0.20;;;;;;;10.22;72.78;100910.09;5095535;28;20405;-71
2022/03/17 00:20:27;;;;;;;0.20;0.20;;;;;;;10.23;71.57;100906.22;5096129;28;20052;-73
2022/03/17 00:22:59;;;;;;;0.20;0.20;;;;;;;10.19;71.47;100891.34;5096588;28;20032;-72
2022/03/17 00:25:29;;;;;;;0.20;0.20;;;;;;;10.32;70.93;100896.97;5095877;28;20028;-72
2022/03/17 00:27:58;;;;;;;0.20;0.20;;;;;;;10.30;70.56;100897.31;5099413;28;20436;-73
2022/03/17 00:30:27;;;;;;;0.20;0.20;;;;;;;10.27;70.81;100895.22;5099282;28;20035;-79
2022/03/17 00:32:58;;;;;;;0.20;0.20;;;;;;;10.33;70.06;100899.38;5100513;28;20103;-74
2022/03/17 00:35:36;;;;;;;0.20;0.20;;;;;;;10.32;69.83;100892.22;5101074;28;20027;-74
2022/03/17 00:38:11;;;;;;;0.15;0.15;;;;;;;10.47;68.66;100893.53;5096008;28;20038;-72
2022/03/17 00:40:42;;;;;;;0.20;0.20;;;;;;;10.46;68.96;100887.16;5092273;28;20024;-72
2022/03/17 00:43:11;;;;;;;0.20;0.20;;;;;;;10.34;68.65;100884.34;5094922;28;20526;-72
2022/03/17 00:45:37;;;;;;;0.20;0.20;;;;;;;10.32;69.49;100869.16;5096594;28;20020;-72
2022/03/17 00:48:09;;;;;;;0.20;0.20;;;;;;;10.34;68.76;100872.41;5096694;28;20020;-72
2022/03/17 00:50:37;;;;;;;0.20;0.20;;;;;;;10.26;68.75;100865.78;5096438;28;20078;-72
2022/03/17 00:53:05;;;;;;;0.20;0.20;;;;;;;10.27;68.44;100861.81;5096151;28;20032;-72
2022/03/17 00:55:33;;;;;;;0.20;0.20;;;;;;;10.30;68.65;100861.16;5095101;28;20059;-72
2022/03/17 00:58:02;;;;;;;0.20;0.20;;;;;;;10.11;69.32;100869.19;5093997;28;20085;-71
2022/03/17 01:00:28;;;;;;;0.20;0.20;;;;;;;10.17;69.74;100867.78;5095210;28;20512;-71
2022/03/17 01:02:56;;;;;;;0.20;0.20;;;;;;;10.04;70.14;100863.38;5094637;28;20118;-71
2022/03/17 01:05:22;;;;;;;0.20;0.20;;;;;;;9.86;72.27;100851.63;5094491;28;20028;-71
2022/03/17 01:07:52;;;;;;;0.20;0.20;;;;;;;9.70;73.86;100848.66;5078990;28;20458;-72
2022/03/17 01:10:18;;;;;;;0.20;0.20;;;;;;;9.70;74.26;100852.25;5095542;28;20046;-72
2022/03/17 01:12:47;;;;;;;0.20;0.20;;;;;;;9.69;74.93;100853.41;5094699;28;20032;-72
2022/03/17 01:15:17;;;;;;;0.20;0.20;;;;;;;9.67;75.59;100843.78;5094361;28;20031;-72
2022/03/17 01:17:44;;;;;;;0.20;0.20;;;;;;;9.70;75.06;100845.88;5094941;28;20059;-72
2022/03/17 01:20:10;;;;;;;0.20;0.20;;;;;;;9.64;76.20;100839.72;5093755;28;20052;-72
2022/03/17 01:22:38;;;;;;;0.20;0.20;;;;;;;9.62;76.13;100835.66;5094437;28;20532;-72
2022/03/17 01:25:05;;;;;;;0.20;0.20;;;;;;;9.66;76.16;100831.84;5094928;28;20347;-72
2022/03/17 01:27:34;;;;;;;0.10;0.10;;;;;;;9.73;75.72;100834.06;5094160;28;20038;-72
2022/03/17 01:30:00;;;;;;;0.20;0.20;;;;;;;9.74;75.67;100827.34;5094289;28;20028;-72
2022/03/17 01:32:32;;;;;;;0.20;0.20;;;;;;;9.71;75.50;100828.06;5094191;28;20024;-72
2022/03/17 01:34:58;;;;;;;0.20;0.20;;;;;;;9.68;75.42;100828.72;5094149;28;20028;-72
2022/03/17 01:37:23;;;;;;;0.20;0.20;;;;;;;9.67;75.26;100827.91;5094191;28;20036;-72
2022/03/17 01:39:49;;;;;;;0.20;0.20;;;;;;;9.66;74.21;100831.03;5094563;28;20390;-71
2022/03/17 01:42:20;;;;;;;0.20;0.20;;;;;;;9.61;73.43;100822.91;5093822;28;20378;-71
2022/03/17 01:44:52;;;;;;;0.20;0.20;;;;;;;9.59;72.21;100828.00;5094026;28;20089;-71
2022/03/17 01:47:29;;;;;;;0.20;0.20;;;;;;;9.57;72.01;100828.31;5093837;28;20024;-72
2022/03/17 01:50:14;;;;;;;0.20;0.20;;;;;;;9.57;71.99;100814.44;5093749;28;20028;-71
2022/03/17 01:52:40;;;;;;;0.20;0.20;;;;;;;9.58;71.29;100815.25;5093680;28;20027;-71
2022/03/17 01:55:08;;;;;;;0.20;0.20;;;;;;;9.63;71.12;100815.84;5093607;28;20055;-71
2022/03/17 01:57:33;;;;;;;0.20;0.20;;;;;;;9.71;70.68;100817.75;5093917;28;20031;-71
2022/03/17 02:00:04;;;;;;;0.20;0.20;;;;;;;9.79;70.09;100816.03;5093671;28;20032;-71
2022/03/17 02:02:35;;;;;;;0.20;0.20;;;;;;;9.67;70.60;100802.91;5093610;28;20027;-72
2022/03/17 02:05:03;;;;;;;0.20;0.20;;;;;;;9.71;69.61;100806.63;5093379;28;20081;-72
2022/03/17 02:07:29;;;;;;;0.20;0.20;;;;;;;9.66;69.42;100808.81;5095636;28;20024;-72
2022/03/17 02:09:55;;;;;;;0.20;0.20;;;;;;;9.76;68.82;100802.03;5093738;28;20050;-72
2022/03/17 02:15:07;;;;;;;0.20;0.20;;;;;;;9.70;68.48;100804.19;5094711;28;20461;-72
2022/03/17 02:17:40;;;;;;;0.20;0.20;;;;;;;9.67;67.70;100800.13;5094965;28;20063;-72
2022/03/17 02:20:09;;;;;;;0.20;0.20;;;;;;;9.74;67.38;100805.13;5092540;28;20079;-72
2022/03/17 02:22:41;;;;;;;0.20;0.20;;;;;;;9.69;67.44;100803.38;5092855;28;20024;-72
2022/03/17 02:27:54;;;;;;;0.20;0.20;;;;;;;9.61;67.59;100790.38;5095001;28;20485;-72
2022/03/17 02:30:25;;;;;;;0.20;0.20;;;;;;;9.64;66.90;100795.25;5093966;28;20028;-73
2022/03/17 02:33:02;;;;;;;0.20;0.20;;;;;;;9.65;67.03;100796.06;5093846;28;20031;-72
2022/03/17 02:35:29;;;;;;;0.20;0.20;;;;;;;9.66;66.82;100792.13;5092641;28;20028;-72
2022/03/17 02:38:03;;;;;;;0.20;0.20;;;;;;;9.73;66.70;100797.13;5093170;28;20028;-72
2022/03/17 02:40:28;;;;;;;;;;;;;;;9.66;66.69;100797.69;5093251;28;20032;-73
2022/03/17 02:43:00;;;;;;;0.20;0.20;;;;;;;9.75;66.05;100792.88;5093444;28;19962;-73
2022/03/17 02:45:26;;;;;;;0.20;0.20;;;;;;;9.67;66.14;100791.78;5094144;28;20066;-73
2022/03/17 02:47:52;;;;;;;0.20;0.20;;;;;;;9.66;64.89;100781.03;5093927;28;20482;-72
2022/03/17 02:50:20;;;;;;;0.20;0.20;;;;;;;9.59;65.33;100778.00;5092789;28;20512;-72
2022/03/17 02:52:51;;;;;;;0.20;0.20;;;;;;;9.65;65.35;100796.06;5092957;28;20032;-72
2022/03/17 02:55:20;;;;;;;0.20;0.20;;;;;;;9.75;65.13;100792.88;5093031;28;20081;-72
2022/03/17 02:57:46;;;;;;;0.20;0.20;;;;;;;9.77;64.14;100790.56;5092633;28;20489;-71
2022/03/17 03:00:13;;;;;;;0.20;0.20;;;;;;;9.77;64.08;100790.56;5092798;28;20467;-72
2022/03/17 03:02:42;;;;;;;0.20;0.20;;;;;;;9.77;64.35;100798.88;5092651;28;20027;-71
2022/03/17 03:05:09;;;;;;;0.20;0.20;;;;;;;9.77;63.69;100793.31;5092540;28;20024;-71
2022/03/17 03:07:35;;;;;;;0.20;0.20;;;;;;;9.76;63.91;100783.38;5093662;28;20115;-71
2022/03/17 03:10:04;;;;;;;0.20;0.20;;;;;;;9.77;64.08;100787.78;5092560;28;20024;-71
2022/03/17 03:12:35;;;;;;;0.20;0.20;;;;;;;9.79;63.36;100782.66;5092436;28;20081;-71
2022/03/17 03:15:01;;;;;;;0.20;0.20;;;;;;;9.78;63.54;100777.47;5092315;28;20020;-71
2022/03/17 03:17:28;;;;;;;0.20;0.20;;;;;;;9.80;63.20;100787.09;5092374;28;20078;-71
2022/03/17 03:19:53;;;;;;;0.20;0.20;;;;;;;9.81;63.09;100783.16;5092149;28;20492;-72
2022/03/17 03:22:19;;;;;;;0.20;0.20;;;;;;;9.74;63.21;100782.88;5096162;28;20131;-71
2022/03/17 03:24:50;;;;;;;0.20;0.20;;;;;;;9.72;62.78;100785.22;5096379;28;20073;-71
2022/03/17 03:27:16;;;;;;;0.20;0.20;;;;;;;9.71;63.40;100783.59;5096647;28;20089;-71
2022/03/17 03:29:42;;;;;;;0.20;0.20;;;;;;;9.66;63.40;100775.47;5098695;28;20039;-72
2022/03/17 03:32:10;;;;;;;0.20;0.20;;;;;;;9.69;63.77;100774.75;5099807;28;20111;-72
2022/03/17 03:34:39;;;;;;;0.20;0.20;;;;;;;9.66;63.46;100769.91;5099959;28;20032;-73
2022/03/17 03:37:25;;;;;;;0.20;0.20;;;;;;;9.64;63.24;100777.75;5100108;28;20328;-72
2022/03/17 03:39:55;;;;;;;0.20;0.20;;;;;;;9.67;63.67;100777.09;5099534;28;20023;-71
2022/03/17 03:42:22;;;;;;;0.20;0.20;;;;;;;9.62;63.57;100768.97;5099165;28;20435;-71
2022/03/17 03:44:48;;;;;;;0.20;0.20;;;;;;;9.66;63.86;100764.34;5099473;28;20455;-71
2022/03/17 03:47:14;;;;;;;0.20;0.20;;;;;;;9.65;63.51;100762.72;5099353;28;20028;-72
2022/03/17 03:49:43;;;;;;;0.20;0.20;;;;;;;9.58;63.96;100768.81;5098489;28;20042;-71
2022/03/17 03:52:11;;;;;;;0.20;0.20;;;;;;;9.55;63.99;100768.72;5101275;28;20085;-72
2022/03/17 03:54:41;;;;;;;0.20;0.20;;;;;;;9.64;63.82;100774.97;5099334;28;20119;-73
2022/03/17 03:57:07;;;;;;;0.20;0.20;;;;;;;9.64;63.59;100777.75;5100208;28;20028;-72
2022/03/17 03:59:34;;;;;;;0.20;0.20;;;;;;;9.62;63.55;100774.53;5099609;28;20114;-72
2022/03/17 04:02:02;;;;;;;0.20;0.20;;;;;;;9.63;63.16;100776.94;5096663;28;20458;-71
2022/03/17 04:04:34;;;;;;;0.20;0.20;;;;;;;9.68;63.30;100778.69;5095779;28;20078;-71
2022/03/17 04:07:04;;;;;;;0.20;0.20;;;;;;;9.68;63.22;100778.69;5096046;28;20433;-71
2022/03/17 04:09:35;;;;;;;0.20;0.20;;;;;;;9.67;62.95;100769.56;5095645;28;20115;-72
2022/03/17 04:12:05;;;;;;;0.20;0.20;;;;;;;9.68;63.50;100775.94;5095657;28;20477;-72
2022/03/17 04:14:34;;;;;;;0.20;0.20;;;;;;;9.71;63.49;100767.72;5095519;28;20122;-72
2022/03/17 04:17:00;;;;;;;0.20;0.20;;;;;;;9.61;63.41;100778.47;5095424;28;20020;-72
2022/03/17 04:19:29;;;;;;;0.20;0.20;;;;;;;9.57;63.24;100771.94;5095039;28;20055;-72
2022/03/17 04:22:01;;;;;;;0.20;0.20;;;;;;;9.66;63.32;100775.47;5095906;28;20028;-72
2022/03/17 04:24:27;;;;;;;0.20;0.20;;;;;;;9.83;62.47;100774.47;5095650;28;20063;-72
2022/03/17 04:26:52;;;;;;;0.20;0.20;;;;;;;9.72;62.84;100779.66;5095658;28;20160;-72
2022/03/17 04:29:21;;;;;;;0.20;0.20;;;;;;;9.76;62.34;100790.91;5095562;28;20043;-71
2022/03/17 04:31:47;;;;;;;0.20;0.20;;;;;;;9.71;62.55;100789.16;5094424;28;20028;-72
2022/03/17 04:34:13;;;;;;;0.20;0.20;;;;;;;9.69;62.55;100791.44;5094547;28;20122;-72
2022/03/17 04:36:42;;;;;;;0.20;0.20;;;;;;;9.69;62.88;100785.88;5095051;28;20474;-72
2022/03/17 04:39:10;;;;;;;0.20;0.20;;;;;;;9.66;62.96;100792.94;5095084;28;20028;-72
2022/03/17 04:41:39;;;;;;;0.20;0.20;;;;;;;9.66;62.98;100789.34;5094991;28;20017;-72
2022/03/17 04:44:09;;;;;;;0.20;0.20;;;;;;;9.61;62.46;100789.56;5095008;28;20122;-72
2022/03/17 04:46:36;;;;;;;0.20;0.20;;;;;;;9.63;62.70;100784.47;5095889;28;20463;-72
2022/03/17 04:49:04;;;;;;;0.20;0.20;;;;;;;9.64;62.92;100788.88;5095148;28;20028;-72
2022/03/17 04:51:36;;;;;;;0.20;0.20;;;;;;;9.71;62.61;100794.69;5095033;28;20089;-72
2022/03/17 04:54:04;;;;;;;0.20;0.20;;;;;;;9.71;62.24;100797.47;5095300;28;20031;-72
2022/03/17 04:56:33;;;;;;;0.20;0.20;;;;;;;9.64;62.36;100797.19;5094930;28;20024;-72
2022/03/17 04:58:58;;;;;;;0.20;0.20;;;;;;;9.62;62.67;100793.97;5094709;28;20125;-72
2022/03/17 05:01:27;;;;;;;0.20;0.20;;;;;;;9.63;61.83;100790.03;5094840;28;20040;-71
2022/03/17 05:03:53;;;;;;;0.20;0.20;;;;;;;9.74;62.21;100801.53;5094804;28;20039;-72
2022/03/17 05:06:22;;;;;;;0.20;0.20;;;;;;;9.67;61.72;100799.31;5094879;28;20455;-72
2022/03/17 05:08:50;;;;;;;0.20;0.20;;;;;;;9.62;62.33;100802.31;5094799;28;20063;-72
2022/03/17 05:11:19;;;;;;;0.20;0.20;;;;;;;9.66;61.81;100794.91;5095566;28;20433;-72
2022/03/17 05:13:46;;;;;;;0.20;0.20;;;;;;;9.66;61.82;100798.50;5095238;28;20094;-72
2022/03/17 05:16:18;;;;;;;0.20;0.20;;;;;;;9.74;61.16;100802.34;5094316;28;20118;-72
2022/03/17 05:18:43;;;;;;;0.20;0.20;;;;;;;9.70;61.53;100799.44;5094147;28;20052;-72
2022/03/17 05:21:09;;;;;;;0.20;0.20;;;;;;;9.66;61.89;100803.25;5094942;28;20028;-72
2022/03/17 05:23:38;;;;;;;0.20;0.20;;;;;;;9.65;61.53;100801.63;5095249;28;20393;-72
2022/03/17 05:26:07;;;;;;;0.20;0.20;;;;;;;9.65;62.17;100804.41;5094948;28;20028;-72
2022/03/17 05:28:34;;;;;;;0.20;0.20;;;;;;;9.62;61.91;100799.53;5095905;28;20028;-72
2022/03/17 05:31:03;;;;;;;0.20;0.20;;;;;;;9.69;62.02;100814.50;5094320;28;20114;-72
2022/03/17 05:33:34;;;;;;;0.20;0.20;;;;;;;9.76;61.29;100811.16;5094093;28;20093;-72
2022/03/17 05:36:00;;;;;;;0.20;0.20;;;;;;;9.73;61.49;100800.72;5093963;28;20035;-72
2022/03/17 05:38:26;;;;;;;0.20;0.20;;;;;;;9.88;61.71;100802.84;5094101;28;20032;-72
2022/03/17 05:40:54;;;;;;;0.17;0.17;;;;;;;9.90;61.46;100803.31;5094077;28;20016;-72
2022/03/17 05:43:23;;;;;;;0.20;0.20;;;;;;;9.95;61.92;100805.06;5093924;28;20036;-72
2022/03/17 05:45:49;;;;;;;0.20;0.20;;;;;;;9.94;61.52;100792.34;5093717;28;20031;-72
2022/03/17 05:48:18;;;;;;;0.20;0.20;;;;;;;9.95;61.51;100789.19;5093787;28;20032;-72
2022/03/17 05:50:45;;;;;;;0.20;0.20;;;;;;;10.11;61.48;100796.88;5093610;28;20111;-72
2022/03/17 05:53:11;;;;;;;0.20;0.20;;;;;;;10.18;61.38;100795.16;5093596;28;20032;-72
2022/03/17 05:55:41;;;;;;;0.20;0.20;;;;;;;10.24;61.11;100790.22;5093602;28;20028;-72
2022/03/17 05:58:12;;;;;;;0.20;0.20;;;;;;;10.32;60.38;100788.47;5093563;28;20483;-72
2022/03/17 06:00:38;;;;;;;0.20;0.20;;;;;;;10.46;59.91;100789.78;5093700;28;20024;-72
2022/03/17 06:03:04;;;;;;;0.20;0.20;;;;;;;10.53;59.66;100785.59;5093957;28;20366;-72
2022/03/17 06:05:30;;;;;;;0.20;0.20;;;;;;;10.60;59.61;100780.25;5093431;28;20035;-71
2022/03/17 06:08:00;;;;;;;0.20;0.20;;;;;;;10.75;59.63;100787.91;5093431;28;20027;-72
2022/03/17 06:10:28;;;;;;;0.20;0.20;;;;;;;10.91;58.91;100785.22;5093392;28;20026;-72
2022/03/17 06:12:58;;;;;;;0.20;0.20;;;;;;;11.08;58.91;100786.91;5093244;28;20482;-71
2022/03/17 06:15:27;;;;;;;0.20;0.20;;;;;;;11.08;57.33;100761.84;5093238;28;20118;-72
2022/03/17 06:17:58;;;;;;;0.20;0.20;;;;;;;11.53;57.38;100783.88;5093745;28;20106;-72
2022/03/17 06:20:34;;;;;;;0.20;0.20;;;;;;;11.83;55.69;100778.78;5093624;28;20032;-72
2022/03/17 06:23:06;;;;;;;0.20;0.20;;;;;;;12.29;55.18;100782.78;5094440;28;20089;-72
2022/03/17 06:25:37;;;;;;;0.20;0.20;;;;;;;12.49;54.11;100771.69;5092822;28;20143;-72
2022/03/17 06:28:09;;;;;;;0.20;0.20;;;;;;;12.68;53.74;100776.56;5093092;28;20534;-72
2022/03/17 06:30:35;;;;;;;0.20;0.20;;;;;;;12.87;52.81;100773.00;5076794;28;20036;-72
2022/03/17 06:33:05;;;;;;;0.20;0.20;;;;;;;13.15;52.10;100761.63;5094749;28;20030;-72
2022/03/17 06:35:31;;;;;;;0.20;0.20;;;;;;;13.49;50.84;100782.34;5092921;28;20034;-72
2022/03/17 06:38:03;;;;;;;0.20;0.20;;;;;;;13.89;50.14;100773.53;5076219;28;20123;-72
2022/03/17 06:40:30;;;;;;;0.20;0.20;;;;;;;14.17;49.04;100776.06;5093093;28;20497;-72
2022/03/17 06:42:56;;;;;;;0.20;0.20;;;;;;;14.29;48.18;100758.28;5093062;28;20051;-72
2022/03/17 06:45:23;;;;;;;0.20;0.20;;;;;;;14.49;46.61;100779.44;5092781;28;20473;-72
2022/03/17 06:47:49;;;;;;;0.17;0.17;;;;;;;14.96;46.60;100774.53;5059517;28;20432;-72
2022/03/17 06:50:21;;;;;;;0.20;0.20;;;;;;;15.37;45.72;100778.31;5093351;28;20032;-72
2022/03/17 06:52:47;;;;;;;0.20;0.20;;;;;;;15.43;44.94;100776.78;5093117;28;20097;-72
2022/03/17 06:55:16;;;;;;;0.17;0.17;;;;;;;15.93;43.01;100771.78;5091741;28;20039;-73
2022/03/17 06:57:44;;;;;;;0.20;0.20;;;;;;;16.66;41.89;100775.63;5092224;28;20031;-71
2022/03/17 07:00:14;;;;;;;0.20;0.20;;;;;;;17.01;41.33;100774.31;5092145;28;20477;-71
2022/03/17 07:02:43;;;;;;;0.10;0.10;;;;;;;17.69;39.72;100780.25;5092902;28;20036;-72
2022/03/17 07:05:11;;;;;;;0.20;0.20;;;;;;;18.20;38.57;100782.78;5092142;28;20032;-72
2022/03/17 07:07:40;;;;;;;0.20;0.20;;;;;;;18.13;37.56;100785.59;5092246;28;20093;-72
2022/03/17 07:10:11;;;;;;;0.20;0.20;;;;;;;18.14;36.80;100781.59;5092517;28;20371;-72
2022/03/17 07:12:38;;;;;;;0.20;0.20;;;;;;;18.59;36.33;100782.81;5092083;28;20043;-72
2022/03/17 07:15:05;;;;;;;0.20;0.20;;;;;;;18.50;36.06;100787.25;5093657;28;20119;-72
2022/03/17 07:17:41;;;;;;;0.20;0.20;;;;;;;18.93;35.73;100778.78;5093456;28;20462;-72
2022/03/17 07:20:15;;;;;;;0.20;0.20;;;;;;;19.08;35.41;100786.00;5091837;28;20044;-72
2022/03/17 07:22:46;;;;;;;0.20;0.20;;;;;;;19.45;34.95;100787.50;5093608;28;20206;-72
2022/03/17 07:25:21;;;;;;;0.20;0.20;;;;;;;19.78;34.62;100757.94;5093216;28;20443;-72
2022/03/17 07:27:49;;;;;;;0.15;0.15;;;;;;;19.29;35.32;100777.50;5091876;28;20028;-72
2022/03/17 07:30:24;;;;;;;0.10;0.10;;;;;;;19.44;34.85;100791.53;5092463;28;20060;-73
2022/03/17 07:32:55;;;;;;;0.10;0.10;;;;;;;20.11;34.18;100784.75;5093180;28;20055;-72
2022/03/17 07:35:25;;;;;;;0.10;0.10;;;;;;;20.26;33.76;100785.47;5092055;28;20383;-72
2022/03/17 07:37:51;;;;;;;0.17;0.17;;;;;;;20.51;33.18;100779.66;5091921;28;20484;-70
2022/03/17 07:40:20;;;;;;;0.10;0.10;;;;;;;19.90;32.88;100797.00;5091703;28;20119;-70
2022/03/17 07:42:51;;;;;;;0.20;0.20;;;;;;;20.02;32.63;100790.06;5091820;28;20085;-70
2022/03/17 07:45:20;;;;;;;0.10;0.10;;;;;;;19.25;34.06;100790.00;5092292;28;20040;-71
2022/03/17 07:47:52;;;;;;;0.20;0.20;;;;;;;18.86;34.42;100795.72;5091613;28;20016;-72
2022/03/17 07:50:21;;;;;;;0.10;0.10;;;;;;;18.91;34.33;100792.47;5091483;28;20086;-72
2022/03/17 07:52:52;;;;;;;0.10;0.10;;;;;;;19.29;34.14;100790.78;5091799;28;20061;-72
2022/03/17 07:55:18;;;;;;;0.20;0.20;;;;;;;19.63;32.50;100793.91;5087118;28;20123;-71
2022/03/17 07:57:45;;;;;;;0.20;0.20;;;;;;;19.48;32.76;100792.31;5091522;28;20114;-71
2022/03/17 08:00:14;;;;;;;0.20;0.20;;;;;;;20.40;31.28;100800.31;5091847;28;20066;-71
2022/03/17 08:02:42;;;;;;;0.10;0.10;;;;;;;20.19;31.48;100783.50;5092543;28;20119;-72
2022/03/17 08:05:09;;;;;;;0.20;0.20;;;;;;;20.36;31.75;100778.94;5093233;28;20032;-71
2022/03/17 08:07:38;;;;;;;0.10;0.10;;;;;;;20.84;30.37;100787.44;5093916;28;20031;-71
2022/03/17 08:10:06;;;;;;;0.10;0.10;;;;;;;21.05;29.94;100796.94;5095362;28;20024;-71
2022/03/17 08:12:38;;;;;;;0.20;0.20;;;;;;;21.06;29.94;100790.06;5095867;28;20477;-71
2022/03/17 08:15:05;;;;;;;0.20;0.20;;;;;;;20.61;30.36;100798.53;5095551;28;20024;-70
2022/03/17 08:17:34;;;;;;;0.17;0.17;;;;;;;20.51;30.05;100796.63;5095812;28;20402;-71
2022/03/17 08:20:00;;;;;;;0.10;0.10;;;;;;;20.87;29.69;100797.91;5094837;28;20052;-72
2022/03/17 08:22:25;;;;;;;0.10;0.10;;;;;;;21.16;29.42;100809.75;5095085;28;20494;-71
2022/03/17 08:24:54;;;;;;;0.10;0.10;;;;;;;21.04;29.33;100795.31;5094920;28;20032;-72
2022/03/17 08:27:22;;;;;;;0.10;0.10;;;;;;;20.95;29.80;100797.84;5094985;28;20039;-71
2022/03/17 08:29:48;;;;;;;0.10;0.10;;;;;;;21.08;28.88;100798.91;5095286;28;20028;-72
2022/03/17 08:32:20;;;;;;;0.20;0.20;;;;;;;20.53;30.16;100805.50;5094813;28;20450;-71
2022/03/17 08:34:51;;;;;;;0.10;0.10;;;;;;;21.03;29.70;100796.53;5094764;28;20051;-72
2022/03/17 08:37:16;;;;;;;0.10;0.10;;;;;;;20.18;30.72;100796.00;5094871;28;20024;-71
2022/03/17 08:39:45;;;;;;;0.10;0.10;;;;;;;20.61;30.75;100792.88;5094655;28;20035;-71
2022/03/17 08:42:11;;;;;;;0.10;0.10;;;;;;;20.67;30.23;100805.38;5094611;28;20024;-71
2022/03/17 08:44:39;;;;;;;0.10;0.10;;;;;;;20.82;30.23;100789.88;5094735;28;20040;-71
2022/03/17 08:49:55;;;;;;;0.10;0.10;;;;;;;20.72;29.38;100802.09;5096126;28;20143;-72
2022/03/17 08:52:23;;;;;;;0.10;0.10;;;;;;;21.43;28.74;100800.59;5094805;28;20032;-71
2022/03/17 08:54:50;;;;;;;0.10;0.10;;;;;;;22.04;27.82;100799.78;5094736;28;20036;-71
2022/03/17 08:57:18;;;;;;;0.10;0.10;;;;;;;23.04;26.85;100798.19;5094410;28;20500;-72
2022/03/17 08:59:46;;;;;;;0.10;0.10;;;;;;;23.74;26.64;100803.72;5094671;28;20359;-71
2022/03/17 09:02:18;;;;;;;0.20;0.20;;;;;;;24.25;25.31;100799.31;5094250;28;20024;-72
2022/03/17 09:04:48;;;;;;;0.10;0.10;;;;;;;24.67;24.79;100798.75;5094239;28;20081;-71
2022/03/17 09:07:13;;;;;;;0.10;0.10;;;;;;;24.82;24.00;100791.41;5094222;28;20083;-71
2022/03/17 09:09:42;;;;;;;0.10;0.10;;;;;;;24.40;24.16;100799.03;5094095;28;20035;-71
2022/03/17 09:12:08;;;;;;;0.10;0.10;;;;;;;23.62;25.47;100795.84;5094407;28;20481;-72
2022/03/17 09:14:41;;;;;;;0.10;0.10;;;;;;;23.40;25.13;100793.44;5094216;28;20113;-73
2022/03/17 09:17:12;;;;;;;0.10;0.10;;;;;;;23.28;25.91;100791.25;5093936;28;20035;-73
2022/03/17 09:19:38;;;;;;;0.10;0.10;;;;;;;22.79;26.24;100788.06;5093299;28;20052;-73
2022/03/17 09:22:07;;;;;;;0.10;0.10;;;;;;;22.19;26.86;100789.88;5093838;28;20489;-73
2022/03/17 09:24:37;;;;;;;0.10;0.10;;;;;;;21.92;27.09;100787.78;5093762;28;20032;-73
2022/03/17 09:27:06;;;;;;;0.10;0.10;;;;;;;21.91;27.20;100791.06;5094422;28;20382;-70
2022/03/17 09:29:38;;;;;;;0.10;0.10;;;;;;;22.18;27.25;100794.75;5095048;28;20055;-70
2022/03/17 09:32:07;;;;;;;0.10;0.10;;;;;;;22.59;26.52;100790.88;5093615;28;20024;-70
2022/03/17 09:34:33;;;;;;;0.10;0.10;;;;;;;22.53;26.42;100798.25;5093626;28;20032;-70
2022/03/17 09:36:59;;;;;;;0.17;0.17;;;;;;;23.08;26.04;100796.09;5094045;28;20035;-70
2022/03/17 09:42:18;;;;;;;0.10;0.10;;;;;;;23.33;25.24;100793.59;5094724;28;20106;-70
2022/03/17 09:44:52;;;;;;;0.10;0.10;;;;;;;22.40;26.31;100800.88;5094136;28;20126;-70
2022/03/17 09:47:27;;;;;;;0.10;0.10;;;;;;;22.91;26.11;100798.84;5093497;28;20027;-70
2022/03/17 09:49:54;;;;;;;0.10;0.10;;;;;;;22.56;26.38;100796.59;5093372;28;20032;-71
2022/03/17 09:52:23;;;;;;;0.10;0.10;;;;;;;23.79;25.16;100800.34;5094694;28;20498;-71
2022/03/17 09:54:52;;;;;;;0.10;0.10;;;;;;;24.27;24.28;100790.34;5093559;28;20055;-72
2022/03/17 09:57:21;;;;;;;0.10;0.10;;;;;;;24.49;24.19;100797.13;5093549;28;20043;-71
2022/03/17 09:59:49;;;;;;;0.10;0.10;;;;;;;24.32;24.27;100792.66;5094157;28;20036;-71
2022/03/17 10:02:17;;;;;;;0.10;0.10;;;;;;;25.08;24.27;100784.66;5093598;28;20027;-71
2022/03/17 10:04:46;;;;;;;0.20;0.20;;;;;;;24.96;23.80;100787.41;5094407;28;20535;-71
2022/03/17 10:07:14;;;;;;;0.10;0.10;;;;;;;24.48;23.49;100786.22;5093039;28;20107;-72
2022/03/17 10:09:45;;;;;;;0.10;0.10;;;;;;;24.43;23.99;100793.22;5093201;28;20039;-71
2022/03/17 10:12:16;;;;;;;0.10;0.10;;;;;;;24.38;24.16;100793.75;5093129;28;20047;-71
2022/03/17 10:14:50;;;;;;;0.10;0.10;;;;;;;23.37;25.69;100791.47;5093206;28;20031;-71
2022/03/17 10:17:36;;;;;;;0.10;0.10;;;;;;;23.56;25.40;100789.06;5094465;28;20039;-71
2022/03/17 10:20:28;;;;;;;0.10;0.10;;;;;;;22.84;26.05;100798.13;5094334;28;20051;-71
2022/03/17 10:22:59;;;;;;;0.10;0.10;;;;;;;22.80;27.18;100789.69;5092790;28;20024;-71
2022/03/17 10:25:31;;;;;;;0.15;0.15;;;;;;;21.85;27.81;100799.25;5092710;28;20081;-71
2022/03/17 10:28:01;;;;;;;0.10;0.10;;;;;;;22.08;27.40;100795.66;5093964;28;20035;-71
2022/03/17 10:30:35;;;;;;;0.10;0.10;;;;;;;21.41;28.55;100794.53;5093920;28;20016;-71
2022/03/17 10:33:14;;;;;;;0.10;0.10;;;;;;;21.43;28.68;100801.38;5092531;28;20032;-71
2022/03/17 10:35:45;;;;;;;0.10;0.10;;;;;;;21.95;27.77;100781.28;5094059;28;20024;-71
2022/03/17 10:38:19;;;;;;;0.10;0.10;;;;;;;22.31;27.89;100792.09;5093017;28;20382;-71
2022/03/17 10:41:11;;;;;;;0.10;0.10;;;;;;;21.98;28.21;100785.28;5092376;28;20016;-70
2022/03/17 10:43:44;;;;;;;0.10;0.10;;;;;;;21.08;29.29;100784.75;5092449;28;20100;-71
2022/03/17 10:46:22;;;;;;;0.20;0.20;;;;;;;20.77;30.30;100798.78;5092805;28;20032;-74
2022/03/17 10:49:08;;;;;;;0.10;0.10;;;;;;;20.47;30.61;100798.69;5092992;28;20110;-71
2022/03/17 10:51:42;;;;;;;0.10;0.10;;;;;;;20.11;31.83;100796.06;5092700;28;20030;-71
2022/03/17 10:54:19;;;;;;;0.20;0.20;;;;;;;20.72;30.86;100801.28;5093016;28;20367;-71
2022/03/17 10:57:03;;;;;;;0.20;0.20;;;;;;;20.74;30.86;100791.16;5092127;28;20052;-73
2022/03/17 10:59:55;;;;;;;0.20;0.20;;;;;;;20.23;31.33;100770.13;5094289;28;20032;-72
2022/03/17 11:02:25;;;;;;;0.17;0.17;;;;;;;20.30;31.56;100797.56;5087714;28;20036;-72
2022/03/17 11:04:55;;;;;;;0.15;0.15;;;;;;;20.19;31.47;100792.00;5092256;28;20024;-72
2022/03/17 11:07:23;;;;;;;0.10;0.10;;;;;;;20.17;31.49;100783.09;5092639;28;20036;-72
2022/03/17 11:09:49;;;;;;;0.10;0.10;;;;;;;20.31;31.34;100783.00;5092215;28;20040;-71
2022/03/17 11:12:20;;;;;;;0.20;0.20;;;;;;;20.25;31.43;100779.03;5092310;28;20470;-72
2022/03/17 11:14:50;;;;;;;0.17;0.17;;;;;;;20.12;31.85;100775.88;5092019;28;20032;-72
2022/03/17 11:17:26;;;;;;;0.20;0.20;;;;;;;20.40;31.43;100774.88;5092033;28;20031;-71
2022/03/17 11:20:02;;;;;;;0.13;0.13;;;;;;;20.04;31.54;100765.84;5091637;28;20553;-71
2022/03/17 11:22:29;;;;;;;0.10;0.10;;;;;;;20.51;31.51;100763.50;5092323;28;20028;-72
2022/03/17 11:25:19;;;;;;;0.10;0.10;;;;;;;19.99;32.32;100771.13;5092317;28;20063;-73
2022/03/17 11:27:49;;;;;;;0.10;0.10;;;;;;;20.47;31.18;100765.56;5093869;28;20135;-72
2022/03/17 11:30:21;;;;;;;0.10;0.10;;;;;;;20.68;31.09;100764.56;5092590;28;20123;-71
2022/03/17 11:32:58;;;;;;;0.13;0.13;;;;;;;20.84;31.61;100759.16;5093542;28;20032;-72
2022/03/17 11:35:32;;;;;;;0.10;0.10;;;;;;;21.28;30.25;100748.97;5092070;28;20032;-72
2022/03/17 11:38:23;;;;;;;0.10;0.10;;;;;;;21.28;30.37;100748.16;5093494;28;20020;-72
2022/03/17 11:41:09;;;;;;;0.20;0.20;;;;;;;21.42;30.40;100754.50;5091638;28;20028;-71
2022/03/17 11:43:47;;;;;;;0.20;0.20;;;;;;;21.79;29.87;100732.97;5096316;28;20028;-72
2022/03/17 11:46:25;;;;;;;0.10;0.10;;;;;;;21.62;29.68;100734.00;5096088;28;20064;-71
2022/03/17 11:48:56;;;;;;;0.20;0.20;;;;;;;22.23;28.55;100731.09;5095627;28;20031;-72
2022/03/17 11:51:25;;;;;;;0.10;0.10;;;;;;;22.52;28.71;100728.56;5096901;28;20120;-72